MSC Sinfonia — H8XH — position and weather

sailwx.info

Track history (hours):
 
Tides and Currents Weather Stations Pressure Air Temp Water Temp Dewpoint Dewpoint Depression Visibility Wind Speed Wind Dir Waves Ship Positions

MSC Sinfonia

Last reported at 2017-Oct-10 01:42 UTC. Time now 2017-Oct-19 00:17 UTC.
Position N 35°31' E 024°41'.
Warning: this ship's position is 8 days out of date.

Length 251 m; draft 6.8 m.

Type: Passenger vessel. MMSI: 356715971.

Date/timePositionNaut miles runAvg speedWind from/ knotsBaromVisibWave heightAir tempDewpointWater temp
2017-Oct-10 01:42N 35°31' E 024°41'312.8
2017-Oct-10 01:28N 35°32' E 024°37'613.3
2017-Oct-10 01:01N 35°33' E 024°30'71314.1
2017-Oct-07 22:31N 44°14' E 013°55'118.8
2017-Oct-07 22:28N 44°15' E 013°54'1418.7
2017-Oct-07 21:42N 44°27' E 013°43'418.7
2017-Oct-07 21:30N 44°30' E 013°40'918.7
2017-Oct-07 21:00N 44°38' E 013°33'918.9
2017-Oct-07 20:30N 44°45' E 013°26'1019.1
2017-Oct-07 20:00N 44°53' E 013°18'918.7
2017-Oct-07 19:30N 44°60' E 013°08'918.8
2017-Oct-07 19:01N 45°05' E 012°58'918.6
2017-Oct-07 18:30N 45°11' E 012°48'918.6
2017-Oct-07 18:00N 45°18' E 012°38'917.2
2017-Oct-07 17:30N 45°24' E 012°29'5 9.9
2017-Oct-07 17:00N 45°26' E 012°23'2 4.8
2017-Oct-07 16:30N 45°26' E 012°20'1 2.0
2017-Oct-07 16:00N 45°26' E 012°18'0 0.1
2017-Oct-07 15:29N 45°26' E 012°18'0 0.0
2017-Oct-07 14:59N 45°26' E 012°18'0 0.0
2017-Oct-07 14:30N 45°26' E 012°18'0 0.0
2017-Oct-07 14:00N 45°26' E 012°18'0 0.0
2017-Oct-07 13:30N 45°26' E 012°18'0 0.0
2017-Oct-07 13:00N 45°26' E 012°18'0 0.0
2017-Oct-07 12:30N 45°26' E 012°18'0 0.0
2017-Oct-07 12:00N 45°26' E 012°18'0 0.0
2017-Oct-07 11:30N 45°26' E 012°18'0 0.0
2017-Oct-07 11:00N 45°26' E 012°18'0 0.0
2017-Oct-07 10:30N 45°26' E 012°18'0 0.0
2017-Oct-07 10:00N 45°26' E 012°18'0 0.0
2017-Oct-07 09:30N 45°26' E 012°18'0 0.0
2017-Oct-07 09:00N 45°26' E 012°18'0 0.0
2017-Oct-07 08:30N 45°26' E 012°18'0 0.0
2017-Oct-07 08:00N 45°26' E 012°18'0 0.0
2017-Oct-07 07:30N 45°26' E 012°18'0 0.0
2017-Oct-07 07:00N 45°26' E 012°18'0 0.1
2017-Oct-07 06:30N 45°26' E 012°18'2 3.8
2017-Oct-07 06:01N 45°26' E 012°21'3 6.0
2017-Oct-07 05:30N 45°26' E 012°25'4 8.4
2017-Oct-07 05:00N 45°23' E 012°30'4 8.3
2017-Oct-07 04:30N 45°21' E 012°35'4 8.4
2017-Oct-07 04:00N 45°19' E 012°40'4 8.7
2017-Oct-07 03:30N 45°17' E 012°46'5 9.3
2017-Oct-07 03:00N 45°13' E 012°50'611.3
2017-Oct-07 02:30N 45°08' E 012°53'612.1
2017-Oct-07 02:00N 45°02' E 012°55'611.9
2017-Oct-07 01:30N 44°56' E 012°58'611.3
2017-Oct-07 01:00N 44°51' E 012°60'610.9
2017-Oct-07 00:30N 44°46' E 013°02'511.2
2017-Oct-07 00:00N 44°40' E 013°04'611.4
2017-Oct-06 23:30N 44°35' E 013°07'611.4
2017-Oct-06 23:00N 44°29' E 013°09'611.2
2017-Oct-06 22:30N 44°24' E 013°12'611.1
2017-Oct-06 22:00N 44°19' E 013°14'611.4
2017-Oct-06 21:30N 44°15' E 013°20'42 2.6
2017-Oct-06 05:37N 43°40' E 013°51'  
2017-Oct-04 01:20N 37°13' E 024°48'617.9
2017-Oct-04 01:00N 37°17' E 024°54'917.9
2017-Oct-04 00:31N 37°23' E 025°02'917.4
2017-Oct-04 00:00N 37°27' E 025°12'611.4
2017-Oct-03 23:30N 37°28' E 025°19'0 0.1
2017-Oct-03 23:00N 37°28' E 025°19'0 0.0
2017-Oct-03 22:30N 37°28' E 025°19'0 0.0
2017-Oct-03 22:00N 37°28' E 025°19'0 0.0
2017-Oct-03 21:30N 37°28' E 025°19'0 0.0
2017-Oct-03 21:00N 37°28' E 025°19'0 0.0
2017-Oct-03 20:30N 37°28' E 025°19'0 0.0
2017-Oct-03 20:00N 37°28' E 025°19'0 0.0
2017-Oct-03 19:30N 37°28' E 025°19'0 0.0
2017-Oct-03 19:00N 37°28' E 025°19'0 0.0
2017-Oct-03 18:30N 37°28' E 025°19'0 0.0
2017-Oct-03 18:00N 37°28' E 025°19'0 0.0
2017-Oct-03 17:30N 37°28' E 025°19'0 0.8
2017-Oct-03 17:01N 37°28' E 025°19'4 8.0
2017-Oct-03 16:30N 37°27' E 025°14'612.3
2017-Oct-03 16:00N 37°22' E 025°11'815.9
2017-Oct-03 15:30N 37°14' E 025°15'815.1
2017-Oct-03 15:00N 37°07' E 025°18'  
2017-Sep-30 02:00N 45°10' E 012°51'  
Track history (hours):
 
Tides and Currents Weather Stations Pressure Air Temp Water Temp Dewpoint Dewpoint Depression Visibility Wind Speed Wind Dir Waves Ship Positions

MSC Sinfonia

Last reported at 2017-Oct-10 01:42 UTC. Time now 2017-Oct-19 00:17 UTC.
Position N 35°31' E 024°41'.
Warning: this ship's position is 8 days out of date.

Length 251 m; draft 6.8 m.

Type: Passenger vessel. MMSI: 356715971.

Date/timePositionNaut miles runAvg speedWind from/ knotsBaromVisibWave heightAir tempDewpointWater temp
2017-Oct-10 01:42N 35°31' E 024°41'312.8
2017-Oct-10 01:28N 35°32' E 024°37'613.3
2017-Oct-10 01:01N 35°33' E 024°30'71314.1
2017-Oct-07 22:31N 44°14' E 013°55'118.8
2017-Oct-07 22:28N 44°15' E 013°54'1418.7
2017-Oct-07 21:42N 44°27' E 013°43'418.7
2017-Oct-07 21:30N 44°30' E 013°40'918.7
2017-Oct-07 21:00N 44°38' E 013°33'918.9
2017-Oct-07 20:30N 44°45' E 013°26'1019.1
2017-Oct-07 20:00N 44°53' E 013°18'918.7
2017-Oct-07 19:30N 44°60' E 013°08'918.8
2017-Oct-07 19:01N 45°05' E 012°58'918.6
2017-Oct-07 18:30N 45°11' E 012°48'918.6
2017-Oct-07 18:00N 45°18' E 012°38'917.2
2017-Oct-07 17:30N 45°24' E 012°29'5 9.9
2017-Oct-07 17:00N 45°26' E 012°23'2 4.8
2017-Oct-07 16:30N 45°26' E 012°20'1 2.0
2017-Oct-07 16:00N 45°26' E 012°18'0 0.1
2017-Oct-07 15:29N 45°26' E 012°18'0 0.0
2017-Oct-07 14:59N 45°26' E 012°18'0 0.0
2017-Oct-07 14:30N 45°26' E 012°18'0 0.0
2017-Oct-07 14:00N 45°26' E 012°18'0 0.0
2017-Oct-07 13:30N 45°26' E 012°18'0 0.0
2017-Oct-07 13:00N 45°26' E 012°18'0 0.0
2017-Oct-07 12:30N 45°26' E 012°18'0 0.0
2017-Oct-07 12:00N 45°26' E 012°18'0 0.0
2017-Oct-07 11:30N 45°26' E 012°18'0 0.0
2017-Oct-07 11:00N 45°26' E 012°18'0 0.0
2017-Oct-07 10:30N 45°26' E 012°18'0 0.0
2017-Oct-07 10:00N 45°26' E 012°18'0 0.0
2017-Oct-07 09:30N 45°26' E 012°18'0 0.0
2017-Oct-07 09:00N 45°26' E 012°18'0 0.0
2017-Oct-07 08:30N 45°26' E 012°18'0 0.0
2017-Oct-07 08:00N 45°26' E 012°18'0 0.0
2017-Oct-07 07:30N 45°26' E 012°18'0 0.0
2017-Oct-07 07:00N 45°26' E 012°18'0 0.1
2017-Oct-07 06:30N 45°26' E 012°18'2 3.8
2017-Oct-07 06:01N 45°26' E 012°21'3 6.0
2017-Oct-07 05:30N 45°26' E 012°25'4 8.4
2017-Oct-07 05:00N 45°23' E 012°30'4 8.3
2017-Oct-07 04:30N 45°21' E 012°35'4 8.4
2017-Oct-07 04:00N 45°19' E 012°40'4 8.7
2017-Oct-07 03:30N 45°17' E 012°46'5 9.3
2017-Oct-07 03:00N 45°13' E 012°50'611.3
2017-Oct-07 02:30N 45°08' E 012°53'612.1
2017-Oct-07 02:00N 45°02' E 012°55'611.9
2017-Oct-07 01:30N 44°56' E 012°58'611.3
2017-Oct-07 01:00N 44°51' E 012°60'610.9
2017-Oct-07 00:30N 44°46' E 013°02'511.2
2017-Oct-07 00:00N 44°40' E 013°04'611.4
2017-Oct-06 23:30N 44°35' E 013°07'611.4
2017-Oct-06 23:00N 44°29' E 013°09'611.2
2017-Oct-06 22:30N 44°24' E 013°12'611.1
2017-Oct-06 22:00N 44°19' E 013°14'611.4
2017-Oct-06 21:30N 44°15' E 013°20'42 2.6
2017-Oct-06 05:37N 43°40' E 013°51'  
2017-Oct-04 01:20N 37°13' E 024°48'617.9
2017-Oct-04 01:00N 37°17' E 024°54'917.9
2017-Oct-04 00:31N 37°23' E 025°02'917.4
2017-Oct-04 00:00N 37°27' E 025°12'611.4
2017-Oct-03 23:30N 37°28' E 025°19'0 0.1
2017-Oct-03 23:00N 37°28' E 025°19'0 0.0
2017-Oct-03 22:30N 37°28' E 025°19'0 0.0
2017-Oct-03 22:00N 37°28' E 025°19'0 0.0
2017-Oct-03 21:30N 37°28' E 025°19'0 0.0
2017-Oct-03 21:00N 37°28' E 025°19'0 0.0
2017-Oct-03 20:30N 37°28' E 025°19'0 0.0
2017-Oct-03 20:00N 37°28' E 025°19'0 0.0
2017-Oct-03 19:30N 37°28' E 025°19'0 0.0
2017-Oct-03 19:00N 37°28' E 025°19'0 0.0
2017-Oct-03 18:30N 37°28' E 025°19'0 0.0
2017-Oct-03 18:00N 37°28' E 025°19'0 0.0
2017-Oct-03 17:30N 37°28' E 025°19'0 0.8
2017-Oct-03 17:01N 37°28' E 025°19'4 8.0
2017-Oct-03 16:30N 37°27' E 025°14'612.3
2017-Oct-03 16:00N 37°22' E 025°11'815.9
2017-Oct-03 15:30N 37°14' E 025°15'815.1
2017-Oct-03 15:00N 37°07' E 025°18'  
2017-Sep-30 02:00N 45°10' E 012°51'  

Dump ship's entire track history